createdAt,value
2023-01-20T00:00:04.247Z,19.40
2023-01-20T00:02:32.057Z,21.10
2023-01-20T00:05:07.749Z,20.60
2023-01-20T00:07:54.455Z,21.80
2023-01-20T00:12:50.725Z,19.10
2023-01-20T00:15:20.058Z,21.00
2023-01-20T00:17:48.775Z,19.90
2023-01-20T00:20:18.860Z,19.00
2023-01-20T00:22:47.178Z,19.90
2023-01-20T00:25:32.834Z,21.70
2023-01-20T00:28:00.472Z,21.30
2023-01-20T00:30:38.028Z,20.60
2023-01-20T00:33:06.372Z,21.30
2023-01-20T00:35:37.382Z,23.20
2023-01-20T00:38:05.610Z,23.00
2023-01-20T00:40:34.278Z,24.20
2023-01-20T00:43:01.758Z,22.00
2023-01-20T00:45:31.421Z,21.60
2023-01-20T00:48:08.882Z,23.70
2023-01-20T00:50:37.098Z,23.40
2023-01-20T00:53:04.310Z,22.90
2023-01-20T00:55:32.204Z,24.30
2023-01-20T00:58:00.087Z,23.00
2023-01-20T01:00:27.540Z,24.70
2023-01-20T01:02:55.499Z,22.90
2023-01-20T01:05:23.747Z,25.30
2023-01-20T01:07:51.530Z,24.20
2023-01-20T01:10:24.908Z,25.60
2023-01-20T01:12:52.603Z,25.70
2023-01-20T01:15:19.715Z,24.40
2023-01-20T01:17:47.033Z,23.20
2023-01-20T01:20:14.939Z,20.90
2023-01-20T01:22:41.986Z,23.10
2023-01-20T01:25:09.966Z,21.10
2023-01-20T01:27:37.327Z,21.90
2023-01-20T01:30:05.801Z,21.50
2023-01-20T01:32:33.978Z,20.30
2023-01-20T01:35:02.145Z,18.20
2023-01-20T01:37:29.835Z,21.10
2023-01-20T01:39:57.361Z,22.20
2023-01-20T01:42:27.216Z,21.00
2023-01-20T01:45:27.364Z,21.80
2023-01-20T01:48:03.742Z,22.90
2023-01-20T01:50:53.031Z,23.30
2023-01-20T01:53:23.097Z,23.20
2023-01-20T01:55:58.489Z,22.00
2023-01-20T01:58:36.002Z,21.80
2023-01-20T02:04:08.572Z,20.90
2023-01-20T02:06:40.970Z,20.70
2023-01-20T02:09:09.459Z,20.40
2023-01-20T02:11:50.479Z,22.80
2023-01-20T02:14:23.652Z,21.90
2023-01-20T02:17:25.278Z,20.50
2023-01-20T02:20:25.538Z,21.10
2023-01-20T02:23:18.460Z,21.80
2023-01-20T02:26:03.317Z,21.70
2023-01-20T02:28:58.752Z,23.10
2023-01-20T02:32:08.921Z,22.80
2023-01-20T02:34:44.836Z,24.00
2023-01-20T02:37:27.978Z,24.90
2023-01-20T02:40:01.114Z,25.20
2023-01-20T02:42:38.485Z,26.20
2023-01-20T02:45:17.898Z,23.60
2023-01-20T02:48:18.811Z,23.70
2023-01-20T02:51:12.212Z,25.60
2023-01-20T02:53:57.362Z,22.40
2023-01-20T02:56:30.184Z,21.10
2023-01-20T02:59:02.717Z,20.50
2023-01-20T03:01:44.610Z,22.30
2023-01-20T03:04:18.768Z,25.40
2023-01-20T03:06:54.042Z,24.40
2023-01-20T03:09:42.083Z,25.80
2023-01-20T03:12:25.020Z,25.90
2023-01-20T03:14:55.529Z,27.70
2023-01-20T03:17:24.650Z,27.20
2023-01-20T03:19:52.174Z,28.70
2023-01-20T03:22:19.389Z,28.90
2023-01-20T03:24:49.843Z,29.70
2023-01-20T03:27:17.388Z,30.90
2023-01-20T03:29:45.020Z,28.40
2023-01-20T03:32:13.200Z,30.70
2023-01-20T03:34:44.453Z,30.30
2023-01-20T03:37:13.533Z,29.90
2023-01-20T03:39:40.757Z,31.10
2023-01-20T03:42:20.110Z,30.70
2023-01-20T03:45:24.680Z,27.90
2023-01-20T03:48:00.895Z,28.20
2023-01-20T03:53:38.537Z,28.00
2023-01-20T03:56:26.400Z,29.40
2023-01-20T03:58:57.968Z,29.80
2023-01-20T04:01:31.325Z,30.40
2023-01-20T04:04:00.291Z,28.70
2023-01-20T04:06:35.618Z,27.30
2023-01-20T04:09:11.179Z,28.90
2023-01-20T04:11:39.246Z,29.50
2023-01-20T04:14:10.049Z,28.80
2023-01-20T04:16:40.293Z,27.50
2023-01-20T04:19:08.467Z,28.90
2023-01-20T04:22:04.298Z,29.50
2023-01-20T04:25:01.423Z,29.10
2023-01-20T04:27:30.465Z,28.20
2023-01-20T04:29:57.594Z,27.50
2023-01-20T04:32:24.635Z,28.40
2023-01-20T04:34:53.137Z,29.10
2023-01-20T04:37:20.239Z,27.50
2023-01-20T04:39:48.137Z,28.20
2023-01-20T04:42:15.221Z,26.50
2023-01-20T04:44:42.621Z,28.00
2023-01-20T04:47:09.647Z,26.90
2023-01-20T04:49:37.430Z,27.70
2023-01-20T04:52:04.795Z,24.20
2023-01-20T04:54:32.022Z,25.20
2023-01-20T04:56:59.195Z,25.60
2023-01-20T04:59:26.175Z,24.50
2023-01-20T05:01:53.740Z,25.40
2023-01-20T05:04:21.694Z,24.60
2023-01-20T05:06:48.708Z,25.00
2023-01-20T05:09:17.625Z,23.70
2023-01-20T05:11:45.228Z,22.80
2023-01-20T05:14:13.072Z,23.30
2023-01-20T05:16:40.461Z,24.00
2023-01-20T05:19:07.984Z,23.20
2023-01-20T05:21:35.195Z,23.80
2023-01-20T05:24:02.910Z,23.00
2023-01-20T05:26:30.397Z,23.00
2023-01-20T05:28:57.654Z,24.80
2023-01-20T05:31:25.984Z,23.00
2023-01-20T05:33:53.071Z,23.30
2023-01-20T05:36:20.534Z,23.60
2023-01-20T05:38:47.686Z,23.20
2023-01-20T05:41:15.322Z,23.00
2023-01-20T05:43:42.546Z,22.30
2023-01-20T05:46:12.402Z,24.20
2023-01-20T05:48:39.660Z,23.00
2023-01-20T05:51:07.148Z,23.10
2023-01-20T05:53:34.404Z,23.60
2023-01-20T05:56:03.281Z,23.20
2023-01-20T05:58:32.014Z,24.20
2023-01-20T06:01:10.470Z,25.50
2023-01-20T06:03:38.262Z,24.70
2023-01-20T06:06:08.686Z,24.10
2023-01-20T06:08:36.788Z,25.80
2023-01-20T06:11:04.141Z,25.20
2023-01-20T06:13:31.308Z,26.90
2023-01-20T06:15:58.579Z,25.00
2023-01-20T06:18:25.542Z,23.70
2023-01-20T06:20:56.779Z,26.00
2023-01-20T06:23:23.963Z,24.80
2023-01-20T06:26:08.630Z,24.90
2023-01-20T06:28:36.413Z,26.70
2023-01-20T06:31:06.635Z,26.60
2023-01-20T06:33:34.396Z,27.40
2023-01-20T06:36:02.982Z,27.00
2023-01-20T06:38:32.417Z,27.50
2023-01-20T06:41:06.964Z,27.10
2023-01-20T06:43:36.518Z,28.80
2023-01-20T06:46:06.425Z,28.00
2023-01-20T06:48:37.650Z,28.40
2023-01-20T06:51:16.682Z,28.30
2023-01-20T06:53:44.860Z,29.00
2023-01-20T06:56:17.240Z,29.30
2023-01-20T06:58:45.286Z,27.20
2023-01-20T07:01:16.353Z,27.10
2023-01-20T07:03:45.485Z,27.80
2023-01-20T07:06:34.724Z,28.40
2023-01-20T07:09:03.272Z,25.90
2023-01-20T07:11:31.735Z,27.30
2023-01-20T07:13:59.651Z,27.00
2023-01-20T07:16:27.073Z,28.00
2023-01-20T07:18:55.346Z,26.60
2023-01-20T07:21:26.033Z,26.50
2023-01-20T07:23:53.940Z,26.50
2023-01-20T07:26:23.367Z,27.00
2023-01-20T07:28:50.637Z,24.90
2023-01-20T07:31:25.072Z,26.60
2023-01-20T07:33:52.769Z,26.10
2023-01-20T07:36:21.940Z,25.80
2023-01-20T07:38:50.851Z,25.50
2023-01-20T07:41:20.220Z,26.20
2023-01-20T07:43:50.217Z,26.60
2023-01-20T07:46:17.828Z,27.40
2023-01-20T07:48:45.818Z,25.90
2023-01-20T07:51:14.953Z,25.90
2023-01-20T07:53:47.887Z,25.00
2023-01-20T07:56:19.604Z,25.90
2023-01-20T07:58:51.013Z,25.90
2023-01-20T08:01:24.380Z,25.20
2023-01-20T08:03:53.625Z,25.80
2023-01-20T08:06:23.821Z,27.50
2023-01-20T08:08:52.754Z,25.10
2023-01-20T08:11:25.670Z,25.30
2023-01-20T08:13:54.299Z,26.10
2023-01-20T08:16:21.907Z,26.00
2023-01-20T08:18:49.919Z,27.50
2023-01-20T08:21:25.575Z,26.60
2023-01-20T08:23:55.928Z,28.60
2023-01-20T08:26:25.327Z,28.10
2023-01-20T08:28:53.332Z,28.50
2023-01-20T08:31:24.263Z,29.60
2023-01-20T08:34:02.725Z,30.00
2023-01-20T08:36:36.555Z,30.50
2023-01-20T08:39:08.365Z,30.90
2023-01-20T08:41:39.298Z,29.60
2023-01-20T08:44:08.462Z,31.30
2023-01-20T08:46:41.517Z,32.20
2023-01-20T08:49:15.277Z,29.20
2023-01-20T08:51:45.442Z,28.00
2023-01-20T08:54:12.767Z,29.20
2023-01-20T08:56:41.568Z,29.10
2023-01-20T08:59:09.179Z,28.90
2023-01-20T09:01:38.319Z,27.90
2023-01-20T09:04:07.786Z,28.00
2023-01-20T09:06:45.779Z,27.80
2023-01-20T09:09:14.957Z,28.50
2023-01-20T09:11:57.528Z,28.20
2023-01-20T09:14:26.408Z,28.90
2023-01-20T09:16:53.934Z,28.40
2023-01-20T09:19:20.962Z,29.00
2023-01-20T09:21:48.538Z,30.00
2023-01-20T09:24:15.967Z,30.30
2023-01-20T09:26:43.206Z,33.30
2023-01-20T09:29:22.668Z,33.60
2023-01-20T09:32:04.760Z,35.10
2023-01-20T09:34:40.271Z,38.80
2023-01-20T09:37:26.212Z,36.80
2023-01-20T09:40:13.372Z,37.20
2023-01-20T09:43:25.044Z,42.10
2023-01-20T09:46:17.611Z,43.40
2023-01-20T09:49:40.076Z,41.70
2023-01-20T09:52:44.686Z,44.10
2023-01-20T09:55:26.822Z,40.60
2023-01-20T09:58:36.122Z,44.90
2023-01-20T10:01:50.441Z,48.40
2023-01-20T10:04:54.466Z,44.80
2023-01-20T10:07:51.705Z,40.80
2023-01-20T10:10:57.523Z,41.70
2023-01-20T10:14:17.709Z,40.80
2023-01-20T10:17:19.118Z,36.90
2023-01-20T10:20:06.692Z,35.90
2023-01-20T10:23:22.644Z,34.60
2023-01-20T10:26:11.196Z,35.00
2023-01-20T10:28:43.937Z,31.80
2023-01-20T10:31:21.687Z,28.90
2023-01-20T10:33:50.406Z,28.30
2023-01-20T10:37:00.960Z,29.70
2023-01-20T10:39:51.148Z,26.10
2023-01-20T10:43:08.009Z,26.70
2023-01-20T10:46:14.459Z,25.80
2023-01-20T10:49:04.732Z,25.40
2023-01-20T10:52:05.105Z,26.30
2023-01-20T10:55:14.908Z,29.10
2023-01-20T10:57:43.410Z,24.90
2023-01-20T11:00:31.893Z,24.60
2023-01-20T11:03:07.110Z,24.90
2023-01-20T11:05:39.048Z,26.90
2023-01-20T11:08:27.797Z,26.70
2023-01-20T11:11:00.510Z,31.50
2023-01-20T11:13:28.353Z,27.20
2023-01-20T11:16:01.775Z,27.40
2023-01-20T11:18:32.569Z,28.40
2023-01-20T11:21:15.393Z,28.60
2023-01-20T11:23:50.053Z,24.50
2023-01-20T11:26:28.366Z,27.40
2023-01-20T11:29:12.428Z,25.90
2023-01-20T11:31:39.764Z,27.50
2023-01-20T11:34:22.338Z,37.20
2023-01-20T11:36:51.306Z,31.30
2023-01-20T11:40:19.638Z,30.90
2023-01-20T11:44:10.417Z,30.70
2023-01-20T11:51:21.634Z,31.30
2023-01-20T11:59:18.065Z,28.60
2023-01-20T12:03:07.967Z,27.40
2023-01-20T12:07:10.423Z,20.20
2023-01-20T12:11:00.959Z,22.50
2023-01-20T12:15:07.470Z,21.10
2023-01-20T12:19:02.519Z,22.30
2023-01-20T12:22:51.951Z,21.50
2023-01-20T12:26:43.247Z,24.20
2023-01-20T12:54:59.663Z,27.80
2023-01-20T12:58:57.954Z,28.60
2023-01-20T13:02:31.833Z,26.50
2023-01-20T13:06:14.748Z,26.10
2023-01-20T13:10:05.755Z,25.30
2023-01-20T13:13:57.221Z,28.90
2023-01-20T13:17:29.425Z,27.40
2023-01-20T13:21:18.941Z,28.40
2023-01-20T13:25:03.973Z,28.20
2023-01-20T13:28:36.549Z,25.70
2023-01-20T13:31:39.158Z,28.30
2023-01-20T13:34:26.415Z,25.50
2023-01-20T13:37:13.860Z,27.20
2023-01-20T13:40:09.701Z,29.60
2023-01-20T13:43:39.023Z,27.60
2023-01-20T13:50:47.829Z,29.00
2023-01-20T13:54:35.469Z,29.50
2023-01-20T13:58:23.341Z,29.50
2023-01-20T14:02:10.882Z,26.90
2023-01-20T14:05:39.011Z,29.00
2023-01-20T14:09:08.500Z,31.20
2023-01-20T14:12:04.047Z,28.10
2023-01-20T14:19:07.315Z,31.20
2023-01-20T14:22:34.375Z,25.20
2023-01-20T14:26:02.560Z,28.00
2023-01-20T14:29:49.878Z,32.00
2023-01-20T14:32:51.839Z,33.00
2023-01-20T14:36:26.339Z,28.10
2023-01-20T14:40:14.561Z,27.70
2023-01-20T14:43:29.034Z,25.10
2023-01-20T14:46:43.524Z,23.50
2023-01-20T14:50:14.855Z,21.90
2023-01-20T14:54:02.469Z,21.90
2023-01-20T14:57:59.986Z,21.30
2023-01-20T15:01:50.597Z,19.50
2023-01-20T15:05:39.566Z,23.80
2023-01-20T15:09:29.203Z,21.30
2023-01-20T15:17:06.901Z,24.00
2023-01-20T15:21:16.697Z,21.90
2023-01-20T15:25:00.009Z,18.50
2023-01-20T15:28:48.193Z,22.80
2023-01-20T15:32:35.758Z,18.30
2023-01-20T15:36:23.497Z,21.00
2023-01-20T15:40:14.972Z,28.30
2023-01-20T15:44:06.461Z,51.40
2023-01-20T15:47:47.666Z,27.60
2023-01-20T15:50:44.799Z,42.80
2023-01-20T15:54:14.241Z,47.10
2023-01-20T16:01:12.688Z,41.40
2023-01-20T16:04:39.976Z,41.60
2023-01-20T16:08:08.980Z,49.10
2023-01-20T16:11:21.901Z,33.00
2023-01-20T16:14:49.664Z,31.00
2023-01-20T16:17:24.300Z,29.10
2023-01-20T16:20:16.015Z,29.50
2023-01-20T16:23:43.297Z,33.10
2023-01-20T16:27:20.764Z,34.60
2023-01-20T16:29:50.786Z,31.70
2023-01-20T16:33:18.413Z,41.80
2023-01-20T16:36:49.075Z,37.70
2023-01-20T16:40:06.035Z,36.30
2023-01-20T16:43:16.733Z,36.10
2023-01-20T16:46:43.751Z,26.90
2023-01-20T16:50:14.493Z,26.80
2023-01-20T16:53:41.598Z,33.10
2023-01-20T16:57:28.821Z,33.00
2023-01-20T17:01:06.319Z,30.10
2023-01-20T17:04:55.258Z,33.20
2023-01-20T17:08:22.935Z,28.70
2023-01-20T17:12:06.594Z,34.90
2023-01-20T17:15:55.080Z,28.10
2023-01-20T17:19:42.359Z,27.40
2023-01-20T17:22:58.878Z,30.80
2023-01-20T17:30:13.699Z,31.20
2023-01-20T17:33:42.930Z,29.00
2023-01-20T17:37:34.535Z,37.10
2023-01-20T17:41:03.883Z,38.10
2023-01-20T17:44:54.904Z,25.60
2023-01-20T17:48:22.260Z,24.00
2023-01-20T17:52:09.428Z,28.30
2023-01-20T17:56:10.949Z,24.00
2023-01-20T17:59:43.729Z,25.90
2023-01-20T18:03:30.967Z,24.50
2023-01-20T18:07:16.681Z,20.00
2023-01-20T18:10:07.596Z,20.00
2023-01-20T18:13:16.374Z,19.70
2023-01-20T18:16:45.644Z,27.30
2023-01-20T18:20:13.741Z,18.30
2023-01-20T18:23:41.885Z,19.20
2023-01-20T18:26:12.644Z,22.50
2023-01-20T18:28:42.155Z,16.70
2023-01-20T18:31:18.224Z,24.80
2023-01-20T18:33:49.080Z,20.00
2023-01-20T18:36:24.402Z,23.30
2023-01-20T18:38:54.171Z,21.60
2023-01-20T18:41:25.764Z,28.30
2023-01-20T18:43:53.547Z,18.90
2023-01-20T18:46:21.563Z,28.30
2023-01-20T18:48:58.245Z,19.80
2023-01-20T18:51:31.230Z,18.70
2023-01-20T18:54:06.483Z,17.10
2023-01-20T18:56:37.848Z,15.90
2023-01-20T18:59:08.301Z,16.10
2023-01-20T19:01:57.084Z,87.10
2023-01-20T19:04:25.021Z,27.70
2023-01-20T19:06:54.513Z,19.80
2023-01-20T19:09:23.378Z,18.60
2023-01-20T19:11:51.712Z,16.50
2023-01-20T19:14:48.662Z,14.70
2023-01-20T19:18:16.617Z,14.60
2023-01-20T19:21:28.051Z,18.60
2023-01-20T19:31:49.671Z,14.70
2023-01-20T19:34:52.662Z,15.30
2023-01-20T19:37:21.087Z,17.50
2023-01-20T19:39:50.230Z,15.00
2023-01-20T19:42:18.471Z,15.40
2023-01-20T19:44:48.488Z,13.80
2023-01-20T19:47:16.823Z,15.40
2023-01-20T19:49:45.253Z,16.80
2023-01-20T19:52:49.024Z,13.30
2023-01-20T19:56:00.381Z,11.30
2023-01-20T19:58:50.104Z,12.40
2023-01-20T20:02:10.558Z,15.70
2023-01-20T20:05:11.286Z,14.40
2023-01-20T20:07:53.244Z,14.20
2023-01-20T20:10:37.009Z,17.80
2023-01-20T20:13:25.705Z,14.60
2023-01-20T20:16:35.781Z,13.10
2023-01-20T20:19:45.743Z,12.50
2023-01-20T20:22:40.758Z,17.00
2023-01-20T20:26:08.376Z,12.40
2023-01-20T20:29:53.697Z,13.70
2023-01-20T20:33:30.775Z,12.60
2023-01-20T20:37:01.600Z,11.60
2023-01-20T20:40:35.689Z,10.20
2023-01-20T20:44:23.372Z,10.70
2023-01-20T20:47:54.499Z,9.80
2023-01-20T20:51:22.500Z,8.80
2023-01-20T20:58:04.131Z,9.90
2023-01-20T21:01:15.397Z,10.20
2023-01-20T21:04:47.214Z,8.10
2023-01-20T21:08:38.716Z,8.10
2023-01-20T21:12:28.644Z,17.10
2023-01-20T21:16:16.119Z,9.70
2023-01-20T21:20:05.789Z,9.90
2023-01-20T21:27:26.015Z,9.30
2023-01-20T21:31:14.331Z,9.20
2023-01-20T21:35:02.336Z,7.90
2023-01-20T21:38:50.208Z,8.30
2023-01-20T21:42:37.791Z,8.20
2023-01-20T21:46:26.320Z,9.90
2023-01-20T21:50:12.331Z,7.50
2023-01-20T21:53:59.772Z,9.20
2023-01-20T21:57:57.690Z,7.00
2023-01-20T22:01:48.360Z,7.20
2023-01-20T22:05:35.925Z,6.50
2023-01-20T22:09:22.731Z,7.20
2023-01-20T22:12:11.819Z,6.50
2023-01-20T22:15:11.365Z,7.20
2023-01-20T22:18:18.988Z,5.90
2023-01-20T22:21:14.385Z,6.40
2023-01-20T22:24:30.242Z,6.00
2023-01-20T22:27:35.027Z,6.30
2023-01-20T22:31:22.311Z,6.40
2023-01-20T22:34:37.844Z,6.20
2023-01-20T22:37:36.057Z,6.10
2023-01-20T22:41:02.948Z,6.50
2023-01-20T22:44:14.201Z,5.80
2023-01-20T22:46:50.551Z,6.20
2023-01-20T22:50:02.878Z,5.80
2023-01-20T22:52:57.232Z,6.20
2023-01-20T22:56:01.128Z,5.60
2023-01-20T22:59:10.428Z,5.90
2023-01-20T23:02:42.024Z,5.20
2023-01-20T23:06:12.918Z,5.90
2023-01-20T23:10:09.392Z,5.20
2023-01-20T23:13:59.132Z,5.30
2023-01-20T23:17:46.912Z,6.00
2023-01-20T23:25:16.928Z,5.00
2023-01-20T23:28:24.395Z,4.60
2023-01-20T23:34:05.440Z,5.00
2023-01-20T23:39:29.680Z,4.50
2023-01-20T23:42:28.407Z,3.90
2023-01-20T23:47:45.338Z,5.20
2023-01-20T23:51:12.352Z,4.80
2023-01-20T23:54:32.690Z,5.30
2023-01-20T23:57:42.443Z,5.10
